Information Last Ob Photographs Calibration Meteogram Network Table Neighbors Monthly Summaries Observation History Wind Roses Custom Wind Roses Data Calendar Satellite Cloud Product Download Terminal Aerodome Forecast

Most Recent Observation

This application displays the last observation received by the IEM from this site. The time stamp is in America/Chicago timezone.

Observation Local Time19 Apr 2024, 3:56 PM
Observation UTC Time2024-04-19T20:56:00Z
Air Temp [F]50
Maximum Air Temperature [F]50
Minimum Air Temperature [F]30
Dew Point [F]22
Wind DirectionWNW (290 degrees)
Wind Speed [knots]16
Altimeter [inches]30.18
Raw Observation/ProductKFOD 192056Z AUTO 29016G31KT 10SM CLR 10/M06 A3018 RMK AO2 PK WND 31031/2051 SLP242 T01001056 56006
Cloud Layer 1: CLR ( feet)

This data was provided by a JSON(P) webservice. You can find more JSON services.